Castle Rock, Minnesota
Current Conditions -  °F | °C
As of 4:01 AM on Monday 26 Jan 2015 (Local Time) from KLVN Reporting Station
Light Snow Light Snow  
Wind Chill: 16°   Ceiling: 1400
Heat Index: 25°   Visibility: 7mi
Dew Point: 21°   Wind: 8mph
Humidity: 86%   Direction: 180°S
Pressure: 29.78"   Gusts: NA
Location:  44.54°N, 93.15°W
Report Text: KLVN 261001Z AUTO 18007KT 7SM -SN BKN014 OVC024 M04/M06 A2978 RMK AO2
Loading
Personal Weather Stations






























Interactive Weather Map New forecast layout! Learn more

10-Day Weather Forecast

Advertisements
Track Severe Weather on mobile